createdAt,value
2018-12-12T00:02:09.292Z,95018.81
2018-12-12T00:04:38.744Z,95018.81
2018-12-12T00:07:08.311Z,95023.47
2018-12-12T00:09:37.663Z,95021.67
2018-12-12T00:12:07.096Z,95023.76
2018-12-12T00:14:36.312Z,95027.56
2018-12-12T00:17:05.577Z,95029.55
2018-12-12T00:19:35.083Z,95030.31
2018-12-12T00:22:04.608Z,95034.62
2018-12-12T00:24:33.895Z,95034.62
2018-12-12T00:27:03.212Z,95035.81
2018-12-12T00:29:32.689Z,95037.01
2018-12-12T00:32:01.888Z,95035.49
2018-12-12T00:34:31.271Z,95038.81
2018-12-12T00:37:00.582Z,95037.90
2018-12-12T00:39:29.885Z,95044.75
2018-12-12T00:41:59.211Z,95041.78
2018-12-12T00:44:28.490Z,95043.12
2018-12-12T00:46:57.864Z,95043.72
2018-12-12T00:49:27.120Z,95043.66
2018-12-12T00:51:56.630Z,95046.91
2018-12-12T00:54:26.007Z,95049.09
2018-12-12T00:56:55.413Z,95055.05
2018-12-12T00:59:24.607Z,95052.38
2018-12-12T01:01:53.907Z,95049.23
2018-12-12T01:04:23.138Z,95046.55
2018-12-12T01:06:52.598Z,95049.23
2018-12-12T01:09:21.908Z,95049.09
2018-12-12T01:11:56.023Z,95046.27
2018-12-12T01:14:25.347Z,95045.80
2018-12-12T01:16:54.685Z,95051.70
2018-12-12T01:19:23.940Z,95048.20
2018-12-12T01:21:53.444Z,95054.06
2018-12-12T01:24:22.843Z,95050.22
2018-12-12T01:26:52.254Z,95046.27
2018-12-12T01:29:21.548Z,95045.95
2018-12-12T01:31:50.792Z,95045.52
2018-12-12T01:34:19.947Z,95045.95
2018-12-12T01:36:49.214Z,95042.98
2018-12-12T01:39:18.536Z,95050.29
2018-12-12T01:41:48.043Z,95047.08
2018-12-12T01:44:17.460Z,95041.12
2018-12-12T01:46:46.766Z,95049.16
2018-12-12T01:49:16.158Z,95056.84
2018-12-12T01:51:45.364Z,95051.52
2018-12-12T01:54:14.660Z,95041.92
2018-12-12T01:56:43.976Z,95041.86
2018-12-12T01:59:13.402Z,95039.37
2018-12-12T02:01:42.784Z,95041.91
2018-12-12T02:04:12.183Z,95041.84
2018-12-12T02:06:41.479Z,95047.00
2018-12-12T02:09:10.807Z,95043.27
2018-12-12T02:11:40.275Z,95044.92
2018-12-12T02:14:09.776Z,95044.81
2018-12-12T02:16:39.303Z,95044.06
2018-12-12T02:19:08.859Z,95046.81
2018-12-12T02:21:38.147Z,95041.17
2018-12-12T02:24:07.295Z,95042.97
2018-12-12T02:26:36.612Z,95050.10
2018-12-12T02:29:06.122Z,95059.06
2018-12-12T02:31:35.587Z,95064.53
2018-12-12T02:34:04.941Z,95061.96
2018-12-12T02:36:34.230Z,95061.14
2018-12-12T02:39:04.244Z,95057.66
2018-12-12T02:41:33.532Z,95052.33
2018-12-12T02:44:02.831Z,95049.08
2018-12-12T02:46:32.254Z,95047.14
2018-12-12T02:49:01.577Z,95042.06
2018-12-12T02:51:30.891Z,95035.44
2018-12-12T02:54:00.278Z,95037.70
2018-12-12T02:56:29.668Z,95039.49
2018-12-12T02:58:58.955Z,95040.23
2018-12-12T03:01:28.263Z,95041.50
2018-12-12T03:03:57.658Z,95033.77
2018-12-12T03:06:27.203Z,95035.58
2018-12-12T03:08:56.555Z,95036.91
2018-12-12T03:11:25.972Z,95038.97
2018-12-12T03:13:55.375Z,95043.73
2018-12-12T03:16:24.724Z,95038.16
2018-12-12T03:18:54.352Z,95037.91
2018-12-12T03:21:23.520Z,95040.41
2018-12-12T03:23:52.879Z,95034.66
2018-12-12T03:26:22.191Z,95030.78
2018-12-12T03:28:51.482Z,95033.46
2018-12-12T03:31:20.807Z,95030.50
2018-12-12T03:33:50.212Z,95029.61
2018-12-12T03:36:19.602Z,95033.46
2018-12-12T03:38:48.915Z,95036.60
2018-12-12T03:41:18.304Z,95036.60
2018-12-12T03:43:47.817Z,95036.00
2018-12-12T03:46:17.016Z,95039.17
2018-12-12T03:48:46.398Z,95040.59
2018-12-12T03:51:15.624Z,95038.54
2018-12-12T03:53:45.027Z,95045.84
2018-12-12T03:56:14.332Z,95050.36
2018-12-12T03:58:43.538Z,95057.02
2018-12-12T04:01:12.842Z,95054.20
2018-12-12T04:03:42.028Z,95058.05
2018-12-12T04:06:11.524Z,95061.05
2018-12-12T04:08:40.923Z,95055.36
2018-12-12T04:11:10.329Z,95053.95
2018-12-12T04:13:39.731Z,95060.52
2018-12-12T04:16:09.045Z,95060.59
2018-12-12T04:18:38.342Z,95060.27
2018-12-12T04:21:07.535Z,95066.45
2018-12-12T04:23:36.856Z,95060.66
2018-12-12T04:26:06.269Z,95064.39
2018-12-12T04:28:35.661Z,95078.25
2018-12-12T04:31:04.932Z,95071.38
2018-12-12T04:33:34.243Z,95072.27
2018-12-12T04:36:03.550Z,95070.88
2018-12-12T04:38:32.888Z,95065.45
2018-12-12T04:41:02.353Z,95073.84
2018-12-12T04:43:31.861Z,95077.58
2018-12-12T04:46:01.143Z,95077.27
2018-12-12T04:48:30.466Z,95083.16
2018-12-12T04:50:59.864Z,95088.59
2018-12-12T04:53:29.259Z,95081.98
2018-12-12T04:55:58.656Z,95086.75
2018-12-12T04:58:27.975Z,95092.18
2018-12-12T05:00:57.348Z,95099.91
2018-12-12T05:03:26.687Z,95098.88
2018-12-12T05:05:56.271Z,95096.27
2018-12-12T05:08:25.720Z,95104.23
2018-12-12T05:10:55.106Z,95098.49
2018-12-12T05:13:24.505Z,95104.39
2018-12-12T05:15:53.814Z,95105.11
2018-12-12T05:18:23.221Z,95108.39
2018-12-12T05:20:52.375Z,95111.73
2018-12-12T05:23:21.599Z,95108.02
2018-12-12T05:25:51.088Z,95106.53
2018-12-12T05:28:20.274Z,95106.91
2018-12-12T05:30:49.606Z,95117.63
2018-12-12T05:33:19.016Z,95110.94
2018-12-12T05:35:48.409Z,95113.23
2018-12-12T05:38:17.727Z,95113.08
2018-12-12T05:40:47.176Z,95116.79
2018-12-12T05:43:16.458Z,95115.06
2018-12-12T05:45:46.065Z,95112.73
2018-12-12T05:48:15.483Z,95114.44
2018-12-12T05:50:44.829Z,95115.45
2018-12-12T05:53:14.068Z,95118.58
2018-12-12T05:55:43.363Z,95122.72
2018-12-12T05:58:12.848Z,95123.87
2018-12-12T06:00:42.252Z,95127.70
2018-12-12T06:03:11.571Z,95137.45
2018-12-12T06:05:40.967Z,95133.83
2018-12-12T06:08:10.257Z,95135.12
2018-12-12T06:10:39.561Z,95134.95
2018-12-12T06:13:09.052Z,95133.19
2018-12-12T06:15:38.372Z,95136.62
2018-12-12T06:18:07.759Z,95141.29
2018-12-12T06:20:37.078Z,95139.84
2018-12-12T06:23:06.497Z,95138.24
2018-12-12T06:25:35.767Z,95138.29
2018-12-12T06:28:05.161Z,95142.59
2018-12-12T06:30:34.570Z,95151.98
2018-12-12T06:33:03.993Z,95155.88
2018-12-12T06:35:33.297Z,95156.47
2018-12-12T06:38:02.714Z,95161.18
2018-12-12T06:40:32.147Z,95160.94
2018-12-12T06:43:01.398Z,95159.59
2018-12-12T06:45:30.598Z,95166.02
2018-12-12T06:48:00.096Z,95161.85
2018-12-12T06:50:29.496Z,95164.08
2018-12-12T06:52:58.911Z,95162.91
2018-12-12T06:55:28.300Z,95164.39
2018-12-12T06:57:57.724Z,95169.44
2018-12-12T07:00:27.113Z,95164.07
2018-12-12T07:02:56.503Z,95169.60
2018-12-12T07:05:25.939Z,95168.98
2018-12-12T07:07:55.225Z,95172.09
2018-12-12T07:10:24.545Z,95173.55
2018-12-12T07:12:53.833Z,95175.98
2018-12-12T07:15:23.236Z,95175.42
2018-12-12T07:17:52.879Z,95178.67
2018-12-12T07:20:22.152Z,95178.67
2018-12-12T07:22:51.688Z,95181.14
2018-12-12T07:25:20.853Z,95185.33
2018-12-12T07:27:50.181Z,95186.06
2018-12-12T07:30:19.443Z,95189.27
2018-12-12T07:32:48.870Z,95193.05
2018-12-12T07:35:18.379Z,95195.73
2018-12-12T07:37:47.789Z,95196.95
2018-12-12T07:40:17.339Z,95197.30
2018-12-12T07:42:46.762Z,95200.13
2018-12-12T07:45:16.690Z,95205.57
2018-12-12T07:47:46.111Z,95201.63
2018-12-12T07:50:15.439Z,95210.12
2018-12-12T07:52:44.740Z,95209.38
2018-12-12T07:55:14.058Z,95204.09
2018-12-12T07:57:43.430Z,95213.16
2018-12-12T08:00:12.999Z,95210.12
2018-12-12T08:02:42.312Z,95212.80
2018-12-12T08:05:11.531Z,95212.80
2018-12-12T08:07:40.837Z,95224.58
2018-12-12T08:10:10.159Z,95220.69
2018-12-12T08:12:39.332Z,95221.89
2018-12-12T08:15:08.719Z,95225.77
2018-12-12T08:17:38.058Z,95221.13
2018-12-12T08:20:07.243Z,95226.05
2018-12-12T08:22:36.535Z,95227.31
2018-12-12T08:25:05.812Z,95234.66
2018-12-12T08:27:35.179Z,95231.17
2018-12-12T08:30:04.434Z,95236.01
2018-12-12T08:32:33.819Z,95235.72
2018-12-12T08:35:03.160Z,95232.88
2018-12-12T08:37:32.644Z,95230.16
2018-12-12T08:40:02.055Z,95244.58
2018-12-12T08:42:31.327Z,95242.70
2018-12-12T08:45:00.651Z,95243.02
2018-12-12T08:47:30.168Z,95239.16
2018-12-12T08:49:59.552Z,95241.32
2018-12-12T08:52:28.855Z,95241.45
2018-12-12T08:54:58.211Z,95245.18
2018-12-12T08:57:27.619Z,95247.05
2018-12-12T08:59:56.862Z,95250.46
2018-12-12T09:02:26.140Z,95245.55
2018-12-12T09:04:55.127Z,95246.44
2018-12-12T09:07:24.368Z,95248.91
2018-12-12T09:09:53.561Z,95244.36
2018-12-12T09:12:22.757Z,95239.00
2018-12-12T09:14:52.060Z,95243.39
2018-12-12T09:17:21.152Z,95244.81
2018-12-12T09:19:50.493Z,95241.36
2018-12-12T09:22:19.784Z,95234.59
2018-12-12T09:24:49.062Z,95232.59
2018-12-12T09:27:18.232Z,95235.55
2018-12-12T09:29:47.766Z,95227.75
2018-12-12T09:32:17.148Z,95230.52
2018-12-12T09:34:46.567Z,95232.67
2018-12-12T09:37:16.053Z,95234.09
2018-12-12T09:39:45.635Z,95228.13
2018-12-12T09:42:15.955Z,95229.26
2018-12-12T09:44:45.204Z,95225.44
2018-12-12T09:47:14.507Z,95213.02
2018-12-12T09:49:43.876Z,95221.14
2018-12-12T09:52:13.130Z,95216.67
2018-12-12T09:54:42.534Z,95214.59
2018-12-12T09:57:11.769Z,95207.00
2018-12-12T09:59:41.131Z,95209.07
2018-12-12T10:02:10.523Z,95203.95
2018-12-12T10:04:39.718Z,95199.53
2018-12-12T10:07:09.118Z,95212.96
2018-12-12T10:09:38.526Z,95200.30
2018-12-12T10:12:07.663Z,95203.12
2018-12-12T10:14:37.030Z,95195.66
2018-12-12T10:17:06.495Z,95197.44
2018-12-12T10:19:35.671Z,95189.55
2018-12-12T10:22:05.032Z,95190.15
2018-12-12T10:24:34.284Z,95188.20
2018-12-12T10:27:03.633Z,95189.09
2018-12-12T10:29:33.124Z,95195.52
2018-12-12T10:32:02.426Z,95183.90
2018-12-12T10:34:31.654Z,95179.63
2018-12-12T10:37:00.917Z,95181.37
2018-12-12T10:39:30.249Z,95176.00
2018-12-12T10:41:59.558Z,95185.25
2018-12-12T10:44:28.861Z,95186.11
2018-12-12T10:46:58.255Z,95185.69
2018-12-12T10:49:27.631Z,95179.17
2018-12-12T10:51:56.684Z,95180.76
2018-12-12T10:54:26.028Z,95185.38
2018-12-12T10:56:55.352Z,95168.56
2018-12-12T10:59:24.713Z,95171.16
2018-12-12T11:01:57.972Z,95173.64
2018-12-12T11:04:27.847Z,95170.36
2018-12-12T11:06:57.267Z,95182.27
2018-12-12T11:09:26.693Z,95179.28
2018-12-12T11:11:55.700Z,95179.27
2018-12-12T11:14:24.717Z,95185.28
2018-12-12T11:16:53.732Z,95183.20
2018-12-12T11:19:22.763Z,95182.55
2018-12-12T11:21:51.779Z,95172.56
2018-12-12T11:24:21.041Z,95173.73
2018-12-12T11:26:50.531Z,95175.00
2018-12-12T11:29:19.831Z,95171.67
2018-12-12T11:31:49.144Z,95174.57
2018-12-12T11:34:18.609Z,95166.94
2018-12-12T11:36:47.969Z,95163.86
2018-12-12T11:39:17.112Z,95164.55
2018-12-12T11:41:46.459Z,95165.05
2018-12-12T11:44:15.600Z,95163.63
2018-12-12T11:46:44.861Z,95167.41
2018-12-12T11:49:14.036Z,95170.84
2018-12-12T11:51:43.136Z,95165.44
2018-12-12T11:54:12.441Z,95172.50
2018-12-12T11:56:41.562Z,95166.53
2018-12-12T11:59:10.941Z,95167.77
2018-12-12T12:01:40.183Z,95163.73
2018-12-12T12:04:09.440Z,95166.38
2018-12-12T12:06:38.659Z,95160.34
2018-12-12T12:09:09.028Z,95164.96
2018-12-12T12:11:38.184Z,95162.60
2018-12-12T12:14:07.583Z,95164.76
2018-12-12T12:16:37.009Z,95162.42
2018-12-12T12:19:06.394Z,95160.05
2018-12-12T12:21:35.693Z,95156.84
2018-12-12T12:24:04.969Z,95162.53
2018-12-12T12:26:34.338Z,95170.38
2018-12-12T12:29:03.632Z,95171.19
2018-12-12T12:31:33.048Z,95166.28
2018-12-12T12:34:03.379Z,95168.12
2018-12-12T12:36:32.942Z,95167.48
2018-12-12T12:39:02.032Z,95167.95
2018-12-12T12:41:31.422Z,95175.92
2018-12-12T12:44:00.917Z,95173.28
2018-12-12T12:46:30.233Z,95180.38
2018-12-12T12:48:59.613Z,95181.01
2018-12-12T12:51:28.952Z,95182.42
2018-12-12T12:53:58.079Z,95179.74
2018-12-12T12:56:27.367Z,95169.99
2018-12-12T12:58:56.528Z,95174.62
2018-12-12T13:01:25.844Z,95184.30
2018-12-12T13:03:55.043Z,95167.52
2018-12-12T13:06:24.339Z,95177.09
2018-12-12T13:08:53.545Z,95178.14
2018-12-12T13:11:22.879Z,95184.78
2018-12-12T13:13:52.071Z,95185.69
2018-12-12T13:16:21.045Z,95189.11
2018-12-12T13:18:50.411Z,95192.52
2018-12-12T13:21:19.627Z,95192.69
2018-12-12T13:23:48.965Z,95191.80
2018-12-12T13:26:18.393Z,95190.91
2018-12-12T13:28:47.624Z,95200.20
2018-12-12T13:31:17.056Z,95195.50
2018-12-12T13:33:46.595Z,95200.44
2018-12-12T13:36:15.859Z,95198.19
2018-12-12T13:38:44.975Z,95201.03
2018-12-12T13:41:14.358Z,95204.17
2018-12-12T13:43:43.634Z,95200.05
2018-12-12T13:46:12.962Z,95205.95
2018-12-12T13:48:42.344Z,95204.47
2018-12-12T13:51:11.616Z,95200.97
2018-12-12T13:53:40.961Z,95213.39
2018-12-12T13:56:10.270Z,95213.56
2018-12-12T13:58:39.444Z,95222.95
2018-12-12T14:01:08.766Z,95217.07
2018-12-12T14:03:37.961Z,95219.66
2018-12-12T14:06:07.366Z,95220.19
2018-12-12T14:08:36.484Z,95219.91
2018-12-12T14:11:05.776Z,95244.56
2018-12-12T14:13:35.041Z,95240.98
2018-12-12T14:16:04.419Z,95236.56
2018-12-12T14:18:33.560Z,95242.46
2018-12-12T14:21:03.019Z,95238.21
2018-12-12T14:23:32.896Z,95243.50
2018-12-12T14:26:02.136Z,95243.67
2018-12-12T14:28:31.416Z,95247.98
2018-12-12T14:31:00.639Z,95246.64
2018-12-12T14:33:29.949Z,95245.83
2018-12-12T14:36:01.161Z,95251.09
2018-12-12T14:38:30.418Z,95249.95
2018-12-12T14:40:59.828Z,95241.31
2018-12-12T14:43:29.177Z,95242.16
2018-12-12T14:45:58.442Z,95240.28
2018-12-12T14:48:30.363Z,95246.41
2018-12-12T14:50:58.993Z,95249.83
2018-12-12T14:53:28.191Z,95253.70
2018-12-12T14:55:57.567Z,95257.98
2018-12-12T15:00:54.858Z,95262.97
2018-12-12T15:03:24.174Z,95258.95
2018-12-12T15:05:53.545Z,95260.22
2018-12-12T15:08:22.952Z,95263.79
2018-12-12T15:10:52.371Z,95258.78
2018-12-12T15:13:21.724Z,95256.52
2018-12-12T15:15:50.911Z,95261.67
2018-12-12T15:18:20.364Z,95266.20
2018-12-12T15:20:49.561Z,95252.14
2018-12-12T15:23:18.949Z,95259.66
2018-12-12T15:25:48.309Z,95257.05
2018-12-12T15:28:17.386Z,95265.03
2018-12-12T15:30:46.664Z,95265.28
2018-12-12T15:33:15.886Z,95263.86
2018-12-12T15:35:45.303Z,95261.42
2018-12-12T15:38:14.579Z,95265.66
2018-12-12T15:40:44.019Z,95256.86
2018-12-12T15:43:13.383Z,95258.52
2018-12-12T15:45:42.784Z,95260.77
2018-12-12T15:48:12.103Z,95255.40
2018-12-12T15:50:41.493Z,95261.52
2018-12-12T15:53:10.908Z,95266.08
2018-12-12T15:55:40.304Z,95269.03
2018-12-12T15:58:09.517Z,95272.25
2018-12-12T16:00:38.541Z,95265.76
2018-12-12T16:03:08.454Z,95265.09
2018-12-12T16:05:37.809Z,95261.15
2018-12-12T16:08:07.231Z,95263.47
2018-12-12T16:10:36.544Z,95263.83
2018-12-12T16:13:05.989Z,95261.07
2018-12-12T16:15:35.291Z,95255.70
2018-12-12T16:18:04.435Z,95253.04
2018-12-12T16:20:33.681Z,95257.71
2018-12-12T16:23:02.842Z,95260.71
2018-12-12T16:25:32.237Z,95262.14
2018-12-12T16:28:01.568Z,95261.61
2018-12-12T16:30:30.836Z,95266.45
2018-12-12T16:33:00.289Z,95265.64
2018-12-12T16:35:29.544Z,95265.11
2018-12-12T16:37:58.848Z,95268.53
2018-12-12T16:40:28.163Z,95269.22
2018-12-12T16:42:57.481Z,95277.27
2018-12-12T16:45:26.620Z,95278.09
2018-12-12T16:47:55.745Z,95281.50
2018-12-12T16:50:25.043Z,95276.59
2018-12-12T16:52:54.271Z,95270.48
2018-12-12T16:55:23.560Z,95280.31
2018-12-12T16:57:52.899Z,95281.06
2018-12-12T17:00:22.244Z,95281.42
2018-12-12T17:02:51.579Z,95284.78
2018-12-12T17:05:20.938Z,95280.45
2018-12-12T17:07:50.266Z,95286.13
2018-12-12T17:10:19.740Z,95286.78
2018-12-12T17:12:49.138Z,95289.47
2018-12-12T17:15:18.344Z,95292.17
2018-12-12T17:17:47.852Z,95293.64
2018-12-12T17:20:17.166Z,95296.86
2018-12-12T17:22:46.391Z,95296.25
2018-12-12T17:25:15.566Z,95305.48
2018-12-12T17:27:44.625Z,95307.14
2018-12-12T17:30:13.851Z,95302.38
2018-12-12T17:32:43.087Z,95302.06
2018-12-12T17:35:12.064Z,95311.91
2018-12-12T17:37:41.040Z,95310.56
2018-12-12T17:40:10.023Z,95308.12
2018-12-12T17:42:39.110Z,95311.75
2018-12-12T17:45:08.153Z,95317.56
2018-12-12T17:47:37.609Z,95315.77
2018-12-12T17:50:07.350Z,95313.17
2018-12-12T17:52:36.764Z,95317.72
2018-12-12T17:55:05.887Z,95308.25
2018-12-12T17:57:35.153Z,95304.88
2018-12-12T18:00:04.590Z,95301.25
2018-12-12T18:02:33.891Z,95304.30
2018-12-12T18:05:03.297Z,95299.10
2018-12-12T18:07:32.776Z,95302.80
2018-12-12T18:10:02.096Z,95303.25
2018-12-12T18:12:31.359Z,95294.94
2018-12-12T18:15:00.424Z,95300.25
2018-12-12T18:17:29.872Z,95296.07
2018-12-12T18:19:59.392Z,95297.16
2018-12-12T18:22:28.712Z,95298.63
2018-12-12T18:24:57.876Z,95301.72
2018-12-12T18:27:27.212Z,95304.39
2018-12-12T18:29:56.477Z,95309.64
2018-12-12T18:32:25.755Z,95319.31
2018-12-12T18:34:55.090Z,95323.70
2018-12-12T18:37:24.199Z,95321.18
2018-12-12T18:39:53.452Z,95328.70
2018-12-12T18:42:22.836Z,95332.27
2018-12-12T18:44:52.285Z,95337.92
2018-12-12T18:47:21.603Z,95341.20
2018-12-12T18:49:50.784Z,95339.41
2018-12-12T18:52:20.013Z,95338.81
2018-12-12T18:54:49.364Z,95332.99
2018-12-12T18:57:18.622Z,95331.70
2018-12-12T18:59:47.805Z,95339.25
2018-12-12T19:02:17.108Z,95337.39
2018-12-12T19:04:46.616Z,95343.28
2018-12-12T19:07:15.637Z,95344.26
2018-12-12T19:09:46.332Z,95349.41
2018-12-12T19:12:15.676Z,95346.33
2018-12-12T19:14:49.807Z,95352.67
2018-12-12T19:17:19.043Z,95348.66
2018-12-12T19:19:48.424Z,95354.29
2018-12-12T19:22:17.740Z,95354.54
2018-12-12T19:24:46.781Z,95347.31
2018-12-12T19:27:16.028Z,95348.23
2018-12-12T19:29:45.763Z,95345.19
2018-12-12T19:32:15.158Z,95347.06
2018-12-12T19:34:49.827Z,95353.72
2018-12-12T19:37:16.599Z,95347.30
2018-12-12T19:39:45.942Z,95355.84
2018-12-12T19:42:15.151Z,95352.74
2018-12-12T19:44:44.428Z,95350.95
2018-12-12T19:47:13.828Z,95350.88
2018-12-12T19:49:43.220Z,95343.36
2018-12-12T19:52:12.624Z,95345.80
2018-12-12T19:54:42.038Z,95345.51
2018-12-12T19:57:11.134Z,95338.64
2018-12-12T19:59:40.436Z,95340.52
2018-12-12T20:02:09.738Z,95342.62
2018-12-12T20:04:39.141Z,95348.88
2018-12-12T20:07:08.849Z,95336.57
2018-12-12T20:09:38.258Z,95337.83
2018-12-12T20:12:07.557Z,95341.41
2018-12-12T20:14:36.764Z,95338.72
2018-12-12T20:17:06.230Z,95338.44
2018-12-12T20:19:35.467Z,95342.38
2018-12-12T20:22:04.911Z,95344.53
2018-12-12T20:24:34.269Z,95345.59
2018-12-12T20:27:03.566Z,95341.38
2018-12-12T20:29:32.972Z,95341.09
2018-12-12T20:32:02.265Z,95341.87
2018-12-12T20:34:31.609Z,95341.38
2018-12-12T20:37:01.067Z,95347.08
2018-12-12T20:39:30.496Z,95348.88
2018-12-12T20:41:59.864Z,95349.83
2018-12-12T20:44:29.095Z,95348.19
2018-12-12T20:46:58.483Z,95350.95
2018-12-12T20:49:27.796Z,95351.61
2018-12-12T20:51:57.275Z,95350.80
2018-12-12T20:54:26.630Z,95346.48
2018-12-12T20:56:56.081Z,95347.00
2018-12-12T20:59:25.497Z,95349.98
2018-12-12T21:01:54.904Z,95343.80
2018-12-12T21:04:24.396Z,95347.66
2018-12-12T21:06:53.800Z,95345.59
2018-12-12T21:09:23.019Z,95348.43
2018-12-12T21:11:52.300Z,95348.56
2018-12-12T21:14:21.628Z,95341.48
2018-12-12T21:16:51.046Z,95352.05
2018-12-12T21:19:20.375Z,95348.88
2018-12-12T21:21:49.717Z,95349.16
2018-12-12T21:24:18.968Z,95351.03
2018-12-12T21:26:48.416Z,95348.03
2018-12-12T21:29:17.734Z,95346.85
2018-12-12T21:31:47.236Z,95347.30
2018-12-12T21:34:16.430Z,95356.48
2018-12-12T21:36:45.757Z,95355.59
2018-12-12T21:39:15.052Z,95361.08
2018-12-12T21:41:44.544Z,95367.34
2018-12-12T21:44:13.960Z,95366.08
2018-12-12T21:46:43.391Z,95361.40
2018-12-12T21:49:12.651Z,95363.11
2018-12-12T21:51:42.008Z,95353.48
2018-12-12T21:54:11.259Z,95357.34
2018-12-12T21:56:40.772Z,95357.58
2018-12-12T21:59:10.151Z,95359.13
2018-12-12T22:01:39.464Z,95355.02
2018-12-12T22:04:08.750Z,95360.30
2018-12-12T22:06:37.985Z,95359.13
2018-12-12T22:09:09.191Z,95361.20
2018-12-12T22:11:38.425Z,95353.23
2018-12-12T22:14:07.915Z,95351.98
2018-12-12T22:16:37.313Z,95349.98
2018-12-12T22:19:06.507Z,95347.06
2018-12-12T22:21:35.754Z,95347.38
2018-12-12T22:24:05.225Z,95351.53
2018-12-12T22:26:34.545Z,95349.13
2018-12-12T22:29:04.039Z,95349.90
2018-12-12T22:31:33.251Z,95352.87
2018-12-12T22:34:02.736Z,95355.52
2018-12-12T22:36:32.228Z,95358.28
2018-12-12T22:39:01.439Z,95350.31
2018-12-12T22:41:30.579Z,95347.91
2018-12-12T22:43:59.746Z,95350.97
2018-12-12T22:46:28.972Z,95349.82
2018-12-12T22:48:58.335Z,95341.70
2018-12-12T22:51:27.753Z,95348.89
2018-12-12T22:53:57.137Z,95338.85
2018-12-12T22:56:26.448Z,95338.24
2018-12-12T22:58:55.819Z,95337.52
2018-12-12T23:01:25.231Z,95344.34
2018-12-12T23:03:54.555Z,95341.77
2018-12-12T23:06:24.069Z,95345.39
2018-12-12T23:08:53.462Z,95350.52
2018-12-12T23:11:22.868Z,95345.88
2018-12-12T23:13:52.194Z,95353.48
2018-12-12T23:16:21.481Z,95346.78
2018-12-12T23:18:50.660Z,95350.52
2018-12-12T23:21:19.858Z,95351.13
2018-12-12T23:23:48.983Z,95351.58
2018-12-12T23:26:18.381Z,95345.59
2018-12-12T23:28:47.770Z,95348.94
2018-12-12T23:31:16.971Z,95347.91
2018-12-12T23:33:46.278Z,95342.55
2018-12-12T23:36:15.688Z,95337.76
2018-12-12T23:38:45.003Z,95350.59
2018-12-12T23:41:14.380Z,95352.30
2018-12-12T23:43:43.869Z,95356.69
2018-12-12T23:46:13.287Z,95363.31
2018-12-12T23:48:42.608Z,95360.59
2018-12-12T23:51:11.897Z,95359.89
2018-12-12T23:53:41.316Z,95358.19
2018-12-12T23:56:10.799Z,95355.27
2018-12-12T23:58:40.206Z,95362.29
